sensor_id;sensor_type;location;lat;lon;timestamp;P1;durP1;ratioP1;P2;durP2;ratioP2
72194;SDS011;60095;50.180;9.032;2022-11-18T00:02:02;8.93;;;3.10;;
72194;SDS011;60095;50.180;9.032;2022-11-18T00:04:29;3.63;;;3.28;;
72194;SDS011;60095;50.180;9.032;2022-11-18T00:06:55;3.33;;;3.03;;
72194;SDS011;60095;50.180;9.032;2022-11-18T00:09:21;4.78;;;4.38;;
72194;SDS011;60095;50.180;9.032;2022-11-18T00:11:48;3.95;;;2.70;;
72194;SDS011;60095;50.180;9.032;2022-11-18T00:14:32;4.70;;;3.75;;
72194;SDS011;60095;50.180;9.032;2022-11-18T00:17:00;5.30;;;4.47;;
72194;SDS011;60095;50.180;9.032;2022-11-18T00:19:27;4.97;;;4.22;;
72194;SDS011;60095;50.180;9.032;2022-11-18T00:21:54;6.32;;;4.47;;
72194;SDS011;60095;50.180;9.032;2022-11-18T00:24:20;11.43;;;4.90;;
72194;SDS011;60095;50.180;9.032;2022-11-18T00:26:47;11.57;;;3.42;;
72194;SDS011;60095;50.180;9.032;2022-11-18T00:29:13;3.17;;;2.80;;
72194;SDS011;60095;50.180;9.032;2022-11-18T00:31:40;10.32;;;4.38;;
72194;SDS011;60095;50.180;9.032;2022-11-18T00:34:09;4.28;;;3.88;;
72194;SDS011;60095;50.180;9.032;2022-11-18T00:36:36;7.47;;;3.70;;
72194;SDS011;60095;50.180;9.032;2022-11-18T00:39:02;4.85;;;4.10;;
72194;SDS011;60095;50.180;9.032;2022-11-18T00:41:29;4.10;;;3.70;;
72194;SDS011;60095;50.180;9.032;2022-11-18T00:44:09;7.22;;;4.40;;
72194;SDS011;60095;50.180;9.032;2022-11-18T00:46:35;5.70;;;4.25;;
72194;SDS011;60095;50.180;9.032;2022-11-18T00:49:02;5.07;;;2.83;;
72194;SDS011;60095;50.180;9.032;2022-11-18T00:51:29;5.93;;;4.32;;
72194;SDS011;60095;50.180;9.032;2022-11-18T00:53:56;3.10;;;2.80;;
72194;SDS011;60095;50.180;9.032;2022-11-18T00:56:22;7.13;;;3.90;;
72194;SDS011;60095;50.180;9.032;2022-11-18T00:58:48;11.63;;;3.55;;
72194;SDS011;60095;50.180;9.032;2022-11-18T01:01:14;4.40;;;3.85;;
72194;SDS011;60095;50.180;9.032;2022-11-18T01:03:41;8.60;;;4.55;;
72194;SDS011;60095;50.180;9.032;2022-11-18T01:06:07;5.07;;;3.95;;
72194;SDS011;60095;50.180;9.032;2022-11-18T01:08:35;3.42;;;3.13;;
72194;SDS011;60095;50.180;9.032;2022-11-18T01:11:01;9.70;;;4.03;;
72194;SDS011;60095;50.180;9.032;2022-11-18T01:13:42;3.45;;;2.92;;
72194;SDS011;60095;50.180;9.032;2022-11-18T01:16:08;5.28;;;4.10;;
72194;SDS011;60095;50.180;9.032;2022-11-18T01:18:34;6.38;;;3.42;;
72194;SDS011;60095;50.180;9.032;2022-11-18T01:21:01;4.97;;;4.07;;
72194;SDS011;60095;50.180;9.032;2022-11-18T01:23:28;5.00;;;4.50;;
72194;SDS011;60095;50.180;9.032;2022-11-18T01:25:56;4.25;;;3.88;;
72194;SDS011;60095;50.180;9.032;2022-11-18T01:28:22;2.95;;;2.70;;
72194;SDS011;60095;50.180;9.032;2022-11-18T01:30:48;32.00;;;4.20;;
72194;SDS011;60095;50.180;9.032;2022-11-18T01:33:15;2.70;;;2.13;;
72194;SDS011;60095;50.180;9.032;2022-11-18T01:35:42;4.32;;;3.45;;
72194;SDS011;60095;50.180;9.032;2022-11-18T01:38:09;4.40;;;3.45;;
72194;SDS011;60095;50.180;9.032;2022-11-18T01:40:37;7.28;;;4.13;;
72194;SDS011;60095;50.180;9.032;2022-11-18T01:43:07;4.00;;;3.33;;
72194;SDS011;60095;50.180;9.032;2022-11-18T01:45:36;7.53;;;3.50;;
72194;SDS011;60095;50.180;9.032;2022-11-18T01:48:07;4.70;;;3.53;;
72194;SDS011;60095;50.180;9.032;2022-11-18T01:50:36;4.00;;;3.63;;
72194;SDS011;60095;50.180;9.032;2022-11-18T01:53:06;6.97;;;4.60;;
72194;SDS011;60095;50.180;9.032;2022-11-18T01:55:34;3.72;;;3.38;;
72194;SDS011;60095;50.180;9.032;2022-11-18T01:58:06;4.18;;;3.78;;
72194;SDS011;60095;50.180;9.032;2022-11-18T02:00:34;4.05;;;3.75;;
72194;SDS011;60095;50.180;9.032;2022-11-18T02:03:01;7.00;;;4.57;;
72194;SDS011;60095;50.180;9.032;2022-11-18T02:05:27;13.35;;;5.15;;
72194;SDS011;60095;50.180;9.032;2022-11-18T02:07:54;4.93;;;4.40;;
72194;SDS011;60095;50.180;9.032;2022-11-18T02:10:24;5.50;;;4.95;;
72194;SDS011;60095;50.180;9.032;2022-11-18T02:12:51;4.75;;;4.28;;
72194;SDS011;60095;50.180;9.032;2022-11-18T02:15:29;5.97;;;4.90;;
72194;SDS011;60095;50.180;9.032;2022-11-18T02:18:00;11.95;;;4.85;;
72194;SDS011;60095;50.180;9.032;2022-11-18T02:20:30;23.05;;;5.68;;
72194;SDS011;60095;50.180;9.032;2022-11-18T02:23:08;9.30;;;4.78;;
72194;SDS011;60095;50.180;9.032;2022-11-18T02:25:42;10.88;;;6.07;;
72194;SDS011;60095;50.180;9.032;2022-11-18T02:30:55;5.47;;;4.03;;
72194;SDS011;60095;50.180;9.032;2022-11-18T02:33:23;10.10;;;4.20;;
72194;SDS011;60095;50.180;9.032;2022-11-18T02:35:52;6.53;;;4.25;;
72194;SDS011;60095;50.180;9.032;2022-11-18T02:38:22;12.68;;;4.03;;
72194;SDS011;60095;50.180;9.032;2022-11-18T02:40:51;3.75;;;3.45;;
72194;SDS011;60095;50.180;9.032;2022-11-18T02:43:20;3.25;;;2.95;;
72194;SDS011;60095;50.180;9.032;2022-11-18T02:45:50;5.35;;;3.08;;
72194;SDS011;60095;50.180;9.032;2022-11-18T02:48:19;3.20;;;2.90;;
72194;SDS011;60095;50.180;9.032;2022-11-18T02:50:47;2.97;;;2.70;;
72194;SDS011;60095;50.180;9.032;2022-11-18T02:53:15;3.05;;;2.75;;
72194;SDS011;60095;50.180;9.032;2022-11-18T02:55:44;3.00;;;2.80;;
72194;SDS011;60095;50.180;9.032;2022-11-18T02:58:11;3.20;;;2.92;;
72194;SDS011;60095;50.180;9.032;2022-11-18T03:00:39;4.15;;;2.58;;
72194;SDS011;60095;50.180;9.032;2022-11-18T03:03:22;4.40;;;3.80;;
72194;SDS011;60095;50.180;9.032;2022-11-18T03:05:50;6.60;;;4.68;;
72194;SDS011;60095;50.180;9.032;2022-11-18T03:08:20;10.82;;;3.25;;
72194;SDS011;60095;50.180;9.032;2022-11-18T03:10:49;2.67;;;2.47;;
72194;SDS011;60095;50.180;9.032;2022-11-18T03:13:19;7.25;;;4.20;;
72194;SDS011;60095;50.180;9.032;2022-11-18T03:15:49;5.55;;;4.47;;
72194;SDS011;60095;50.180;9.032;2022-11-18T03:18:19;5.30;;;3.60;;
72194;SDS011;60095;50.180;9.032;2022-11-18T03:20:51;4.68;;;4.28;;
72194;SDS011;60095;50.180;9.032;2022-11-18T03:23:19;8.25;;;5.97;;
72194;SDS011;60095;50.180;9.032;2022-11-18T03:25:49;4.60;;;4.13;;
72194;SDS011;60095;50.180;9.032;2022-11-18T03:28:17;3.28;;;2.22;;
72194;SDS011;60095;50.180;9.032;2022-11-18T03:30:49;3.25;;;2.95;;
72194;SDS011;60095;50.180;9.032;2022-11-18T03:33:17;4.70;;;4.25;;
72194;SDS011;60095;50.180;9.032;2022-11-18T03:35:45;3.17;;;2.97;;
72194;SDS011;60095;50.180;9.032;2022-11-18T03:38:15;6.53;;;2.63;;
72194;SDS011;60095;50.180;9.032;2022-11-18T03:40:44;4.30;;;3.70;;
72194;SDS011;60095;50.180;9.032;2022-11-18T03:43:12;7.03;;;3.03;;
72194;SDS011;60095;50.180;9.032;2022-11-18T03:45:40;3.30;;;2.83;;
72194;SDS011;60095;50.180;9.032;2022-11-18T03:48:08;3.08;;;2.78;;
72194;SDS011;60095;50.180;9.032;2022-11-18T03:50:37;2.72;;;2.38;;
72194;SDS011;60095;50.180;9.032;2022-11-18T03:53:04;3.85;;;3.42;;
72194;SDS011;60095;50.180;9.032;2022-11-18T03:55:33;6.07;;;3.88;;
72194;SDS011;60095;50.180;9.032;2022-11-18T03:58:01;8.68;;;3.10;;
72194;SDS011;60095;50.180;9.032;2022-11-18T04:00:31;3.65;;;2.03;;
72194;SDS011;60095;50.180;9.032;2022-11-18T04:02:59;3.50;;;2.38;;
72194;SDS011;60095;50.180;9.032;2022-11-18T04:05:25;5.30;;;3.90;;
72194;SDS011;60095;50.180;9.032;2022-11-18T04:07:54;5.47;;;3.30;;
72194;SDS011;60095;50.180;9.032;2022-11-18T04:10:21;3.03;;;2.72;;
72194;SDS011;60095;50.180;9.032;2022-11-18T04:12:53;2.40;;;1.83;;
72194;SDS011;60095;50.180;9.032;2022-11-18T04:15:21;3.42;;;3.10;;
72194;SDS011;60095;50.180;9.032;2022-11-18T04:17:47;2.20;;;2.00;;
72194;SDS011;60095;50.180;9.032;2022-11-18T04:20:14;3.63;;;3.30;;
72194;SDS011;60095;50.180;9.032;2022-11-18T04:22:42;2.97;;;2.67;;
72194;SDS011;60095;50.180;9.032;2022-11-18T04:25:08;4.13;;;3.00;;
72194;SDS011;60095;50.180;9.032;2022-11-18T04:27:34;5.65;;;3.33;;
72194;SDS011;60095;50.180;9.032;2022-11-18T04:30:02;3.72;;;2.75;;
72194;SDS011;60095;50.180;9.032;2022-11-18T04:32:29;14.63;;;3.10;;
72194;SDS011;60095;50.180;9.032;2022-11-18T04:34:55;4.43;;;3.08;;
72194;SDS011;60095;50.180;9.032;2022-11-18T04:37:22;3.72;;;3.33;;
72194;SDS011;60095;50.180;9.032;2022-11-18T04:39:48;3.60;;;2.35;;
72194;SDS011;60095;50.180;9.032;2022-11-18T04:42:14;3.15;;;2.85;;
72194;SDS011;60095;50.180;9.032;2022-11-18T04:44:41;4.97;;;3.63;;
72194;SDS011;60095;50.180;9.032;2022-11-18T04:47:08;2.72;;;2.53;;
72194;SDS011;60095;50.180;9.032;2022-11-18T04:49:35;3.03;;;2.00;;
72194;SDS011;60095;50.180;9.032;2022-11-18T04:52:01;4.93;;;2.88;;
72194;SDS011;60095;50.180;9.032;2022-11-18T04:54:28;4.82;;;3.10;;
72194;SDS011;60095;50.180;9.032;2022-11-18T04:56:54;4.55;;;3.20;;
72194;SDS011;60095;50.180;9.032;2022-11-18T04:59:21;2.47;;;2.28;;
72194;SDS011;60095;50.180;9.032;2022-11-18T05:01:48;3.53;;;3.20;;
72194;SDS011;60095;50.180;9.032;2022-11-18T05:04:17;2.83;;;2.63;;
72194;SDS011;60095;50.180;9.032;2022-11-18T05:06:43;3.97;;;2.60;;
72194;SDS011;60095;50.180;9.032;2022-11-18T05:09:09;3.92;;;3.30;;
72194;SDS011;60095;50.180;9.032;2022-11-18T05:11:36;2.88;;;2.20;;
72194;SDS011;60095;50.180;9.032;2022-11-18T05:14:20;3.80;;;3.10;;
72194;SDS011;60095;50.180;9.032;2022-11-18T05:16:46;3.15;;;2.42;;
72194;SDS011;60095;50.180;9.032;2022-11-18T05:19:13;2.30;;;1.52;;
72194;SDS011;60095;50.180;9.032;2022-11-18T05:21:40;5.57;;;2.40;;
72194;SDS011;60095;50.180;9.032;2022-11-18T05:24:07;11.88;;;3.38;;
72194;SDS011;60095;50.180;9.032;2022-11-18T05:26:33;2.95;;;1.98;;
72194;SDS011;60095;50.180;9.032;2022-11-18T05:28:59;4.75;;;2.85;;
72194;SDS011;60095;50.180;9.032;2022-11-18T05:31:25;3.58;;;3.28;;
72194;SDS011;60095;50.180;9.032;2022-11-18T05:33:52;4.07;;;3.35;;
72194;SDS011;60095;50.180;9.032;2022-11-18T05:36:18;5.88;;;3.75;;
72194;SDS011;60095;50.180;9.032;2022-11-18T05:38:46;3.40;;;2.72;;
72194;SDS011;60095;50.180;9.032;2022-11-18T05:41:13;5.82;;;4.03;;
72194;SDS011;60095;50.180;9.032;2022-11-18T05:44:00;6.53;;;4.53;;
72194;SDS011;60095;50.180;9.032;2022-11-18T05:46:25;12.60;;;4.70;;
72194;SDS011;60095;50.180;9.032;2022-11-18T05:48:52;6.95;;;6.28;;
72194;SDS011;60095;50.180;9.032;2022-11-18T05:51:18;7.03;;;6.40;;
72194;SDS011;60095;50.180;9.032;2022-11-18T05:53:45;9.43;;;8.60;;
72194;SDS011;60095;50.180;9.032;2022-11-18T05:56:16;9.20;;;8.30;;
72194;SDS011;60095;50.180;9.032;2022-11-18T05:58:43;14.55;;;7.50;;
72194;SDS011;60095;50.180;9.032;2022-11-18T06:01:10;10.75;;;8.00;;
72194;SDS011;60095;50.180;9.032;2022-11-18T06:03:37;13.38;;;7.07;;
72194;SDS011;60095;50.180;9.032;2022-11-18T06:06:06;11.20;;;8.73;;
72194;SDS011;60095;50.180;9.032;2022-11-18T06:08:34;8.57;;;7.30;;
72194;SDS011;60095;50.180;9.032;2022-11-18T06:11:02;8.70;;;8.00;;
72194;SDS011;60095;50.180;9.032;2022-11-18T06:13:30;9.90;;;8.93;;
72194;SDS011;60095;50.180;9.032;2022-11-18T06:15:59;11.32;;;7.88;;
72194;SDS011;60095;50.180;9.032;2022-11-18T06:18:26;10.90;;;9.52;;
72194;SDS011;60095;50.180;9.032;2022-11-18T06:20:53;7.93;;;7.03;;
72194;SDS011;60095;50.180;9.032;2022-11-18T06:23:21;7.20;;;6.20;;
72194;SDS011;60095;50.180;9.032;2022-11-18T06:25:47;7.75;;;6.95;;
72194;SDS011;60095;50.180;9.032;2022-11-18T06:28:14;15.15;;;9.65;;
72194;SDS011;60095;50.180;9.032;2022-11-18T06:30:43;9.25;;;7.93;;
72194;SDS011;60095;50.180;9.032;2022-11-18T06:33:09;15.35;;;8.43;;
72194;SDS011;60095;50.180;9.032;2022-11-18T06:35:35;10.52;;;9.15;;
72194;SDS011;60095;50.180;9.032;2022-11-18T06:38:02;11.95;;;9.95;;
72194;SDS011;60095;50.180;9.032;2022-11-18T06:40:28;10.20;;;9.15;;
72194;SDS011;60095;50.180;9.032;2022-11-18T06:42:54;9.95;;;8.95;;
72194;SDS011;60095;50.180;9.032;2022-11-18T06:45:38;11.77;;;10.57;;
72194;SDS011;60095;50.180;9.032;2022-11-18T06:48:26;9.65;;;8.73;;
72194;SDS011;60095;50.180;9.032;2022-11-18T06:50:51;12.20;;;10.55;;
72194;SDS011;60095;50.180;9.032;2022-11-18T06:53:17;11.43;;;10.32;;
72194;SDS011;60095;50.180;9.032;2022-11-18T06:55:44;9.95;;;9.05;;
72194;SDS011;60095;50.180;9.032;2022-11-18T06:58:10;10.50;;;9.40;;
72194;SDS011;60095;50.180;9.032;2022-11-18T07:00:36;12.32;;;11.18;;
72194;SDS011;60095;50.180;9.032;2022-11-18T07:03:03;13.90;;;10.85;;
72194;SDS011;60095;50.180;9.032;2022-11-18T07:05:30;11.43;;;9.32;;
72194;SDS011;60095;50.180;9.032;2022-11-18T07:07:57;13.25;;;12.05;;
72194;SDS011;60095;50.180;9.032;2022-11-18T07:10:23;15.93;;;12.00;;
72194;SDS011;60095;50.180;9.032;2022-11-18T07:12:49;10.40;;;9.35;;
72194;SDS011;60095;50.180;9.032;2022-11-18T07:15:16;9.10;;;8.13;;
72194;SDS011;60095;50.180;9.032;2022-11-18T07:17:42;17.38;;;8.98;;
72194;SDS011;60095;50.180;9.032;2022-11-18T07:20:09;10.93;;;9.20;;
72194;SDS011;60095;50.180;9.032;2022-11-18T07:22:36;10.98;;;8.82;;
72194;SDS011;60095;50.180;9.032;2022-11-18T07:25:03;8.68;;;7.85;;
72194;SDS011;60095;50.180;9.032;2022-11-18T07:27:29;11.77;;;9.93;;
72194;SDS011;60095;50.180;9.032;2022-11-18T07:29:56;11.70;;;8.23;;
72194;SDS011;60095;50.180;9.032;2022-11-18T07:32:22;19.52;;;9.98;;
72194;SDS011;60095;50.180;9.032;2022-11-18T07:34:48;11.75;;;10.63;;
72194;SDS011;60095;50.180;9.032;2022-11-18T07:37:14;15.90;;;11.38;;
72194;SDS011;60095;50.180;9.032;2022-11-18T07:39:42;21.08;;;13.48;;
72194;SDS011;60095;50.180;9.032;2022-11-18T07:42:09;12.75;;;11.38;;
72194;SDS011;60095;50.180;9.032;2022-11-18T07:44:35;12.27;;;10.77;;
72194;SDS011;60095;50.180;9.032;2022-11-18T07:47:01;10.27;;;9.25;;
72194;SDS011;60095;50.180;9.032;2022-11-18T07:49:28;13.30;;;8.57;;
72194;SDS011;60095;50.180;9.032;2022-11-18T07:51:54;12.43;;;9.55;;
72194;SDS011;60095;50.180;9.032;2022-11-18T07:54:20;12.55;;;10.25;;
72194;SDS011;60095;50.180;9.032;2022-11-18T07:56:48;9.65;;;7.85;;
72194;SDS011;60095;50.180;9.032;2022-11-18T07:59:14;10.88;;;9.07;;
72194;SDS011;60095;50.180;9.032;2022-11-18T08:01:41;11.02;;;9.93;;
72194;SDS011;60095;50.180;9.032;2022-11-18T08:04:08;12.70;;;10.18;;
72194;SDS011;60095;50.180;9.032;2022-11-18T08:06:34;10.90;;;9.80;;
72194;SDS011;60095;50.180;9.032;2022-11-18T08:09:01;11.27;;;9.45;;
72194;SDS011;60095;50.180;9.032;2022-11-18T08:11:28;9.38;;;8.43;;
72194;SDS011;60095;50.180;9.032;2022-11-18T08:13:56;9.25;;;8.27;;
72194;SDS011;60095;50.180;9.032;2022-11-18T08:16:23;10.90;;;9.90;;
72194;SDS011;60095;50.180;9.032;2022-11-18T08:18:49;10.63;;;9.32;;
72194;SDS011;60095;50.180;9.032;2022-11-18T08:21:16;9.70;;;8.63;;
72194;SDS011;60095;50.180;9.032;2022-11-18T08:23:45;9.02;;;7.85;;
72194;SDS011;60095;50.180;9.032;2022-11-18T08:26:14;13.15;;;8.25;;
72194;SDS011;60095;50.180;9.032;2022-11-18T08:28:40;13.45;;;10.35;;
72194;SDS011;60095;50.180;9.032;2022-11-18T08:31:09;8.38;;;7.30;;
72194;SDS011;60095;50.180;9.032;2022-11-18T08:33:36;11.27;;;10.00;;
72194;SDS011;60095;50.180;9.032;2022-11-18T08:36:04;11.40;;;10.25;;
72194;SDS011;60095;50.180;9.032;2022-11-18T08:38:31;10.70;;;8.90;;
72194;SDS011;60095;50.180;9.032;2022-11-18T08:40:57;17.92;;;10.77;;
72194;SDS011;60095;50.180;9.032;2022-11-18T08:43:24;12.90;;;11.60;;
72194;SDS011;60095;50.180;9.032;2022-11-18T08:45:50;13.55;;;10.18;;
72194;SDS011;60095;50.180;9.032;2022-11-18T08:48:20;11.80;;;10.70;;
72194;SDS011;60095;50.180;9.032;2022-11-18T08:50:46;12.52;;;11.48;;
72194;SDS011;60095;50.180;9.032;2022-11-18T08:53:13;17.10;;;12.52;;
72194;SDS011;60095;50.180;9.032;2022-11-18T08:55:40;12.27;;;11.13;;
72194;SDS011;60095;50.180;9.032;2022-11-18T08:58:06;14.52;;;10.95;;
72194;SDS011;60095;50.180;9.032;2022-11-18T09:00:32;12.25;;;10.90;;
72194;SDS011;60095;50.180;9.032;2022-11-18T09:02:59;11.48;;;10.38;;
72194;SDS011;60095;50.180;9.032;2022-11-18T09:05:26;12.48;;;11.25;;
72194;SDS011;60095;50.180;9.032;2022-11-18T09:07:53;12.10;;;10.90;;
72194;SDS011;60095;50.180;9.032;2022-11-18T09:10:19;10.48;;;9.57;;
72194;SDS011;60095;50.180;9.032;2022-11-18T09:12:45;12.15;;;11.13;;
72194;SDS011;60095;50.180;9.032;2022-11-18T09:15:12;16.50;;;13.02;;
72194;SDS011;60095;50.180;9.032;2022-11-18T09:17:38;17.65;;;11.82;;
72194;SDS011;60095;50.180;9.032;2022-11-18T09:20:05;13.63;;;11.27;;
72194;SDS011;60095;50.180;9.032;2022-11-18T09:22:35;15.50;;;11.85;;
72194;SDS011;60095;50.180;9.032;2022-11-18T09:25:03;11.73;;;10.68;;
72194;SDS011;60095;50.180;9.032;2022-11-18T09:27:29;13.82;;;11.25;;
72194;SDS011;60095;50.180;9.032;2022-11-18T09:29:56;12.45;;;11.23;;
72194;SDS011;60095;50.180;9.032;2022-11-18T09:32:22;22.95;;;12.90;;
72194;SDS011;60095;50.180;9.032;2022-11-18T09:34:48;13.60;;;12.20;;
72194;SDS011;60095;50.180;9.032;2022-11-18T09:37:15;13.45;;;12.05;;
72194;SDS011;60095;50.180;9.032;2022-11-18T09:39:42;11.32;;;10.38;;
72194;SDS011;60095;50.180;9.032;2022-11-18T09:42:12;11.98;;;10.88;;
72194;SDS011;60095;50.180;9.032;2022-11-18T09:44:48;12.02;;;9.65;;
72194;SDS011;60095;50.180;9.032;2022-11-18T09:47:19;10.75;;;9.75;;
72194;SDS011;60095;50.180;9.032;2022-11-18T09:49:47;11.07;;;10.07;;
72194;SDS011;60095;50.180;9.032;2022-11-18T09:52:15;9.60;;;8.43;;
72194;SDS011;60095;50.180;9.032;2022-11-18T09:54:44;10.75;;;9.77;;
72194;SDS011;60095;50.180;9.032;2022-11-18T09:57:12;13.02;;;9.82;;
72194;SDS011;60095;50.180;9.032;2022-11-18T09:59:39;12.45;;;11.27;;
72194;SDS011;60095;50.180;9.032;2022-11-18T10:02:13;13.38;;;11.73;;
72194;SDS011;60095;50.180;9.032;2022-11-18T10:04:47;12.90;;;10.85;;
72194;SDS011;60095;50.180;9.032;2022-11-18T10:07:14;12.48;;;11.23;;
72194;SDS011;60095;50.180;9.032;2022-11-18T10:09:41;11.63;;;10.45;;
72194;SDS011;60095;50.180;9.032;2022-11-18T10:12:15;12.63;;;11.40;;
72194;SDS011;60095;50.180;9.032;2022-11-18T10:14:50;11.13;;;10.02;;
72194;SDS011;60095;50.180;9.032;2022-11-18T10:17:21;14.70;;;12.23;;
72194;SDS011;60095;50.180;9.032;2022-11-18T10:19:50;20.27;;;10.68;;
72194;SDS011;60095;50.180;9.032;2022-11-18T10:22:21;10.15;;;9.15;;
72194;SDS011;60095;50.180;9.032;2022-11-18T10:24:52;8.88;;;8.18;;
72194;SDS011;60095;50.180;9.032;2022-11-18T10:27:20;16.35;;;8.85;;
72194;SDS011;60095;50.180;9.032;2022-11-18T10:29:47;13.60;;;7.15;;
72194;SDS011;60095;50.180;9.032;2022-11-18T10:32:15;9.63;;;8.27;;
72194;SDS011;60095;50.180;9.032;2022-11-18T10:34:46;11.45;;;8.50;;
72194;SDS011;60095;50.180;9.032;2022-11-18T10:37:20;10.10;;;8.20;;
72194;SDS011;60095;50.180;9.032;2022-11-18T10:39:48;10.57;;;7.75;;
72194;SDS011;60095;50.180;9.032;2022-11-18T10:42:16;13.05;;;8.00;;
72194;SDS011;60095;50.180;9.032;2022-11-18T10:44:47;6.63;;;6.03;;
72194;SDS011;60095;50.180;9.032;2022-11-18T10:47:14;9.00;;;6.30;;
72194;SDS011;60095;50.180;9.032;2022-11-18T10:49:41;9.02;;;7.50;;
72194;SDS011;60095;50.180;9.032;2022-11-18T10:52:08;6.75;;;6.18;;
72194;SDS011;60095;50.180;9.032;2022-11-18T10:54:35;8.20;;;6.72;;
72194;SDS011;60095;50.180;9.032;2022-11-18T10:57:03;5.20;;;4.15;;
72194;SDS011;60095;50.180;9.032;2022-11-18T10:59:31;5.07;;;4.55;;
72194;SDS011;60095;50.180;9.032;2022-11-18T11:02:00;5.95;;;5.00;;
72194;SDS011;60095;50.180;9.032;2022-11-18T11:04:28;3.33;;;3.10;;
72194;SDS011;60095;50.180;9.032;2022-11-18T11:06:55;3.75;;;3.45;;
72194;SDS011;60095;50.180;9.032;2022-11-18T11:09:24;5.90;;;5.30;;
72194;SDS011;60095;50.180;9.032;2022-11-18T11:11:55;4.90;;;3.88;;
72194;SDS011;60095;50.180;9.032;2022-11-18T11:14:22;5.82;;;3.22;;
72194;SDS011;60095;50.180;9.032;2022-11-18T11:16:57;5.30;;;4.13;;
72194;SDS011;60095;50.180;9.032;2022-11-18T11:19:28;4.07;;;3.17;;
72194;SDS011;60095;50.180;9.032;2022-11-18T11:21:56;4.78;;;4.30;;
72194;SDS011;60095;50.180;9.032;2022-11-18T11:24:23;7.88;;;6.07;;
72194;SDS011;60095;50.180;9.032;2022-11-18T11:26:52;4.72;;;4.28;;
72194;SDS011;60095;50.180;9.032;2022-11-18T11:29:24;10.20;;;5.15;;
72194;SDS011;60095;50.180;9.032;2022-11-18T11:31:57;5.60;;;3.70;;
72194;SDS011;60095;50.180;9.032;2022-11-18T11:40:56;2.70;;;2.40;;
72194;SDS011;60095;50.180;9.032;2022-11-18T11:43:29;4.47;;;3.83;;
72194;SDS011;60095;50.180;9.032;2022-11-18T11:46:02;12.05;;;4.45;;
72194;SDS011;60095;50.180;9.032;2022-11-18T11:48:33;5.50;;;3.92;;
72194;SDS011;60095;50.180;9.032;2022-11-18T11:51:04;3.53;;;3.05;;
72194;SDS011;60095;50.180;9.032;2022-11-18T11:53:50;4.45;;;4.05;;
72194;SDS011;60095;50.180;9.032;2022-11-18T11:56:23;3.90;;;3.05;;
72194;SDS011;60095;50.180;9.032;2022-11-18T11:58:57;4.20;;;2.97;;
72194;SDS011;60095;50.180;9.032;2022-11-18T12:01:26;4.65;;;4.07;;
72194;SDS011;60095;50.180;9.032;2022-11-18T12:03:55;11.20;;;4.18;;
72194;SDS011;60095;50.180;9.032;2022-11-18T12:06:25;13.90;;;3.28;;
72194;SDS011;60095;50.180;9.032;2022-11-18T12:08:55;4.38;;;3.97;;
72194;SDS011;60095;50.180;9.032;2022-11-18T12:11:28;5.28;;;4.38;;
72194;SDS011;60095;50.180;9.032;2022-11-18T12:13:57;9.98;;;3.72;;
72194;SDS011;60095;50.180;9.032;2022-11-18T12:16:27;4.30;;;2.72;;
72194;SDS011;60095;50.180;9.032;2022-11-18T12:18:58;7.40;;;5.40;;
72194;SDS011;60095;50.180;9.032;2022-11-18T12:24:23;4.75;;;3.50;;
72194;SDS011;60095;50.180;9.032;2022-11-18T12:26:52;3.83;;;3.42;;
72194;SDS011;60095;50.180;9.032;2022-11-18T12:29:20;4.35;;;3.95;;
72194;SDS011;60095;50.180;9.032;2022-11-18T12:31:47;5.15;;;4.70;;
72194;SDS011;60095;50.180;9.032;2022-11-18T12:34:20;5.38;;;4.03;;
72194;SDS011;60095;50.180;9.032;2022-11-18T12:36:52;5.93;;;4.18;;
72194;SDS011;60095;50.180;9.032;2022-11-18T12:42:15;4.88;;;3.53;;
72194;SDS011;60095;50.180;9.032;2022-11-18T12:48:01;3.08;;;2.58;;
72194;SDS011;60095;50.180;9.032;2022-11-18T12:53:08;3.70;;;2.38;;
72194;SDS011;60095;50.180;9.032;2022-11-18T12:55:35;2.33;;;2.08;;
72194;SDS011;60095;50.180;9.032;2022-11-18T12:58:17;3.20;;;2.90;;
72194;SDS011;60095;50.180;9.032;2022-11-18T13:00:45;11.93;;;2.47;;
72194;SDS011;60095;50.180;9.032;2022-11-18T13:03:20;2.42;;;2.03;;
72194;SDS011;60095;50.180;9.032;2022-11-18T13:05:46;9.95;;;3.03;;
72194;SDS011;60095;50.180;9.032;2022-11-18T13:08:13;3.13;;;2.72;;
72194;SDS011;60095;50.180;9.032;2022-11-18T13:10:45;2.58;;;2.28;;
72194;SDS011;60095;50.180;9.032;2022-11-18T13:15:45;3.03;;;2.42;;
72194;SDS011;60095;50.180;9.032;2022-11-18T13:18:28;2.63;;;2.33;;
72194;SDS011;60095;50.180;9.032;2022-11-18T13:20:55;2.22;;;1.90;;
72194;SDS011;60095;50.180;9.032;2022-11-18T13:23:23;2.38;;;2.08;;
72194;SDS011;60095;50.180;9.032;2022-11-18T13:26:11;5.60;;;4.20;;
72194;SDS011;60095;50.180;9.032;2022-11-18T13:28:41;3.22;;;2.83;;
72194;SDS011;60095;50.180;9.032;2022-11-18T13:31:12;3.80;;;3.45;;
72194;SDS011;60095;50.180;9.032;2022-11-18T13:33:40;21.63;;;3.53;;
72194;SDS011;60095;50.180;9.032;2022-11-18T13:36:13;2.85;;;2.63;;
72194;SDS011;60095;50.180;9.032;2022-11-18T13:38:40;4.18;;;3.13;;
72194;SDS011;60095;50.180;9.032;2022-11-18T13:41:19;4.00;;;3.08;;
72194;SDS011;60095;50.180;9.032;2022-11-18T13:43:48;8.45;;;3.47;;
72194;SDS011;60095;50.180;9.032;2022-11-18T13:46:17;3.35;;;3.05;;
72194;SDS011;60095;50.180;9.032;2022-11-18T13:48:45;9.82;;;4.50;;
72194;SDS011;60095;50.180;9.032;2022-11-18T13:51:13;3.90;;;3.55;;
72194;SDS011;60095;50.180;9.032;2022-11-18T13:53:39;3.55;;;3.25;;
72194;SDS011;60095;50.180;9.032;2022-11-18T13:56:12;2.60;;;2.40;;
72194;SDS011;60095;50.180;9.032;2022-11-18T13:58:41;11.48;;;3.67;;
72194;SDS011;60095;50.180;9.032;2022-11-18T14:01:11;4.22;;;3.85;;
72194;SDS011;60095;50.180;9.032;2022-11-18T14:03:45;4.63;;;3.88;;
72194;SDS011;60095;50.180;9.032;2022-11-18T14:06:22;10.93;;;4.80;;
72194;SDS011;60095;50.180;9.032;2022-11-18T14:08:49;3.53;;;3.22;;
72194;SDS011;60095;50.180;9.032;2022-11-18T14:11:32;5.97;;;3.80;;
72194;SDS011;60095;50.180;9.032;2022-11-18T14:13:59;5.05;;;3.42;;
72194;SDS011;60095;50.180;9.032;2022-11-18T14:16:29;4.45;;;3.05;;
72194;SDS011;60095;50.180;9.032;2022-11-18T14:18:57;4.95;;;4.00;;
72194;SDS011;60095;50.180;9.032;2022-11-18T14:21:25;4.32;;;2.95;;
72194;SDS011;60095;50.180;9.032;2022-11-18T14:23:52;6.47;;;2.92;;
72194;SDS011;60095;50.180;9.032;2022-11-18T14:26:25;3.95;;;3.22;;
72194;SDS011;60095;50.180;9.032;2022-11-18T14:28:52;2.83;;;2.63;;
72194;SDS011;60095;50.180;9.032;2022-11-18T14:31:21;3.00;;;2.05;;
72194;SDS011;60095;50.180;9.032;2022-11-18T14:36:31;5.20;;;3.33;;
72194;SDS011;60095;50.180;9.032;2022-11-18T14:38:57;3.88;;;3.58;;
72194;SDS011;60095;50.180;9.032;2022-11-18T14:41:24;2.47;;;2.13;;
72194;SDS011;60095;50.180;9.032;2022-11-18T14:44:04;5.50;;;2.00;;
72194;SDS011;60095;50.180;9.032;2022-11-18T14:46:31;5.30;;;2.38;;
72194;SDS011;60095;50.180;9.032;2022-11-18T14:48:58;2.35;;;1.20;;
72194;SDS011;60095;50.180;9.032;2022-11-18T14:51:27;1.75;;;1.48;;
72194;SDS011;60095;50.180;9.032;2022-11-18T14:53:54;0.88;;;0.75;;
72194;SDS011;60095;50.180;9.032;2022-11-18T14:56:21;1.55;;;1.15;;
72194;SDS011;60095;50.180;9.032;2022-11-18T14:58:49;4.90;;;1.60;;
72194;SDS011;60095;50.180;9.032;2022-11-18T15:01:15;0.88;;;0.60;;
72194;SDS011;60095;50.180;9.032;2022-11-18T15:03:41;0.93;;;0.65;;
72194;SDS011;60095;50.180;9.032;2022-11-18T15:06:11;2.63;;;0.70;;
72194;SDS011;60095;50.180;9.032;2022-11-18T15:08:37;0.22;;;0.20;;
72194;SDS011;60095;50.180;9.032;2022-11-18T15:11:06;1.33;;;1.15;;
72194;SDS011;60095;50.180;9.032;2022-11-18T15:13:32;1.13;;;0.85;;
72194;SDS011;60095;50.180;9.032;2022-11-18T15:15:59;2.22;;;1.00;;